Terminal Aerodrome Forecast
Issued by NWS

Home | Current Version | Previous Version | Text Only | Print | Product List | Glossary On
Versions: 1 2 3 4 5 6 7 8 9 10 11 12 13 14
000
FTUS41 KBTV 021100
TAFSLK
TAF
KSLK 021120Z 0212/0312 00000KT 1/4SM FG VV002
      TEMPO 0213/0214 1SM BR OVC002
     FM021400 00000KT 3SM BR SCT003
     FM021500 VRB03KT P6SM SCT040
     FM021800 VRB03KT P6SM SCT200
     FM030400 00000KT 1/4SM FG VV001=

USA.gov is the U.S. government's official web portal to all federal, state and local government web resources and services.